sensor_id;sensor_type;location;lat;lon;timestamp;P1;durP1;ratioP1;P2;durP2;ratioP2
46463;SDS011;32161;48.148;-1.554;2023-11-19T00:01:17;10.43;;;1.95;;
46463;SDS011;32161;48.148;-1.554;2023-11-19T00:03:45;8.88;;;3.13;;
46463;SDS011;32161;48.148;-1.554;2023-11-19T00:06:13;7.47;;;2.40;;
46463;SDS011;32161;48.148;-1.554;2023-11-19T00:08:42;9.00;;;2.28;;
46463;SDS011;32161;48.148;-1.554;2023-11-19T00:11:09;12.68;;;2.40;;
46463;SDS011;32161;48.148;-1.554;2023-11-19T00:13:40;5.78;;;2.17;;
46463;SDS011;32161;48.148;-1.554;2023-11-19T00:16:08;5.55;;;2.05;;
46463;SDS011;32161;48.148;-1.554;2023-11-19T00:18:37;11.10;;;2.90;;
46463;SDS011;32161;48.148;-1.554;2023-11-19T00:21:05;5.63;;;1.90;;
46463;SDS011;32161;48.148;-1.554;2023-11-19T00:23:33;13.23;;;2.05;;
46463;SDS011;32161;48.148;-1.554;2023-11-19T00:26:00;7.90;;;1.77;;
46463;SDS011;32161;48.148;-1.554;2023-11-19T00:28:31;11.50;;;2.27;;
46463;SDS011;32161;48.148;-1.554;2023-11-19T00:30:59;11.73;;;2.50;;
46463;SDS011;32161;48.148;-1.554;2023-11-19T00:33:28;7.40;;;1.83;;
46463;SDS011;32161;48.148;-1.554;2023-11-19T00:35:56;7.50;;;2.33;;
46463;SDS011;32161;48.148;-1.554;2023-11-19T00:38:23;5.00;;;1.67;;
46463;SDS011;32161;48.148;-1.554;2023-11-19T00:40:51;12.55;;;2.33;;
46463;SDS011;32161;48.148;-1.554;2023-11-19T00:43:18;5.07;;;1.77;;
46463;SDS011;32161;48.148;-1.554;2023-11-19T00:45:47;9.35;;;2.83;;
46463;SDS011;32161;48.148;-1.554;2023-11-19T00:48:16;11.63;;;2.38;;
46463;SDS011;32161;48.148;-1.554;2023-11-19T00:50:43;12.90;;;1.98;;
46463;SDS011;32161;48.148;-1.554;2023-11-19T00:53:13;10.80;;;2.17;;
46463;SDS011;32161;48.148;-1.554;2023-11-19T00:55:40;11.27;;;2.72;;
46463;SDS011;32161;48.148;-1.554;2023-11-19T00:58:08;13.70;;;2.70;;
46463;SDS011;32161;48.148;-1.554;2023-11-19T01:00:36;18.50;;;4.38;;
46463;SDS011;32161;48.148;-1.554;2023-11-19T01:03:03;21.10;;;5.95;;
46463;SDS011;32161;48.148;-1.554;2023-11-19T01:05:32;14.93;;;4.97;;
46463;SDS011;32161;48.148;-1.554;2023-11-19T01:07:59;20.45;;;5.35;;
46463;SDS011;32161;48.148;-1.554;2023-11-19T01:10:31;13.93;;;3.88;;
46463;SDS011;32161;48.148;-1.554;2023-11-19T01:12:59;16.02;;;4.32;;
46463;SDS011;32161;48.148;-1.554;2023-11-19T01:15:26;18.42;;;6.60;;
46463;SDS011;32161;48.148;-1.554;2023-11-19T01:17:54;26.83;;;7.95;;
46463;SDS011;32161;48.148;-1.554;2023-11-19T01:20:21;28.20;;;6.20;;
46463;SDS011;32161;48.148;-1.554;2023-11-19T01:22:49;13.93;;;4.03;;
46463;SDS011;32161;48.148;-1.554;2023-11-19T01:25:17;21.20;;;4.10;;
46463;SDS011;32161;48.148;-1.554;2023-11-19T01:27:46;21.98;;;4.10;;
46463;SDS011;32161;48.148;-1.554;2023-11-19T01:30:15;16.87;;;4.03;;
46463;SDS011;32161;48.148;-1.554;2023-11-19T01:32:42;28.05;;;6.13;;
46463;SDS011;32161;48.148;-1.554;2023-11-19T01:35:10;29.25;;;7.38;;
46463;SDS011;32161;48.148;-1.554;2023-11-19T01:37:38;25.75;;;9.45;;
46463;SDS011;32161;48.148;-1.554;2023-11-19T01:40:05;20.23;;;4.35;;
46463;SDS011;32161;48.148;-1.554;2023-11-19T01:42:36;18.65;;;3.75;;
46463;SDS011;32161;48.148;-1.554;2023-11-19T01:45:06;20.25;;;5.22;;
46463;SDS011;32161;48.148;-1.554;2023-11-19T01:47:35;18.88;;;3.55;;
46463;SDS011;32161;48.148;-1.554;2023-11-19T01:50:03;26.50;;;5.47;;
46463;SDS011;32161;48.148;-1.554;2023-11-19T01:52:34;21.40;;;4.63;;
46463;SDS011;32161;48.148;-1.554;2023-11-19T01:55:03;23.83;;;4.90;;
46463;SDS011;32161;48.148;-1.554;2023-11-19T01:57:32;30.02;;;7.68;;
46463;SDS011;32161;48.148;-1.554;2023-11-19T02:00:02;18.73;;;3.55;;
46463;SDS011;32161;48.148;-1.554;2023-11-19T02:02:36;26.45;;;6.15;;
46463;SDS011;32161;48.148;-1.554;2023-11-19T02:05:05;23.02;;;5.75;;
46463;SDS011;32161;48.148;-1.554;2023-11-19T02:07:33;19.15;;;4.45;;
46463;SDS011;32161;48.148;-1.554;2023-11-19T02:10:01;23.27;;;5.15;;
46463;SDS011;32161;48.148;-1.554;2023-11-19T02:12:30;18.67;;;3.90;;
46463;SDS011;32161;48.148;-1.554;2023-11-19T02:15:00;23.70;;;3.92;;
46463;SDS011;32161;48.148;-1.554;2023-11-19T02:17:30;23.17;;;3.42;;
46463;SDS011;32161;48.148;-1.554;2023-11-19T02:19:59;19.27;;;3.13;;
46463;SDS011;32161;48.148;-1.554;2023-11-19T02:22:28;20.00;;;3.85;;
46463;SDS011;32161;48.148;-1.554;2023-11-19T02:24:57;17.30;;;3.55;;
46463;SDS011;32161;48.148;-1.554;2023-11-19T02:27:39;30.83;;;6.38;;
46463;SDS011;32161;48.148;-1.554;2023-11-19T02:30:13;23.60;;;3.67;;
46463;SDS011;32161;48.148;-1.554;2023-11-19T02:32:41;19.35;;;4.07;;
46463;SDS011;32161;48.148;-1.554;2023-11-19T02:35:09;23.45;;;3.92;;
46463;SDS011;32161;48.148;-1.554;2023-11-19T02:37:37;24.33;;;4.28;;
46463;SDS011;32161;48.148;-1.554;2023-11-19T02:40:05;23.05;;;4.00;;
46463;SDS011;32161;48.148;-1.554;2023-11-19T02:42:34;20.05;;;3.80;;
46463;SDS011;32161;48.148;-1.554;2023-11-19T02:45:04;22.90;;;4.32;;
46463;SDS011;32161;48.148;-1.554;2023-11-19T02:47:33;25.05;;;3.50;;
46463;SDS011;32161;48.148;-1.554;2023-11-19T02:50:01;28.77;;;4.30;;
46463;SDS011;32161;48.148;-1.554;2023-11-19T02:52:32;18.42;;;3.38;;
46463;SDS011;32161;48.148;-1.554;2023-11-19T02:55:02;26.23;;;4.47;;
46463;SDS011;32161;48.148;-1.554;2023-11-19T02:57:34;25.02;;;3.80;;
46463;SDS011;32161;48.148;-1.554;2023-11-19T03:00:04;18.50;;;3.65;;
46463;SDS011;32161;48.148;-1.554;2023-11-19T03:02:38;20.13;;;3.65;;
46463;SDS011;32161;48.148;-1.554;2023-11-19T03:05:11;21.58;;;3.78;;
46463;SDS011;32161;48.148;-1.554;2023-11-19T03:07:40;24.65;;;3.47;;
46463;SDS011;32161;48.148;-1.554;2023-11-19T03:12:39;27.50;;;4.05;;
46463;SDS011;32161;48.148;-1.554;2023-11-19T03:15:09;23.00;;;3.78;;
46463;SDS011;32161;48.148;-1.554;2023-11-19T03:17:38;21.48;;;3.55;;
46463;SDS011;32161;48.148;-1.554;2023-11-19T03:20:06;27.58;;;3.97;;
46463;SDS011;32161;48.148;-1.554;2023-11-19T03:22:36;26.38;;;5.05;;
46463;SDS011;32161;48.148;-1.554;2023-11-19T03:25:04;25.50;;;5.57;;
46463;SDS011;32161;48.148;-1.554;2023-11-19T03:27:33;33.28;;;5.05;;
46463;SDS011;32161;48.148;-1.554;2023-11-19T03:30:01;22.58;;;4.47;;
46463;SDS011;32161;48.148;-1.554;2023-11-19T03:32:32;30.13;;;5.32;;
46463;SDS011;32161;48.148;-1.554;2023-11-19T03:35:00;23.58;;;4.90;;
46463;SDS011;32161;48.148;-1.554;2023-11-19T03:37:29;25.27;;;5.00;;
46463;SDS011;32161;48.148;-1.554;2023-11-19T03:39:58;20.02;;;5.45;;
46463;SDS011;32161;48.148;-1.554;2023-11-19T03:42:26;27.95;;;5.05;;
46463;SDS011;32161;48.148;-1.554;2023-11-19T03:44:55;29.90;;;4.43;;
46463;SDS011;32161;48.148;-1.554;2023-11-19T03:47:23;29.35;;;5.70;;
46463;SDS011;32161;48.148;-1.554;2023-11-19T03:49:52;25.63;;;4.13;;
46463;SDS011;32161;48.148;-1.554;2023-11-19T03:52:19;21.08;;;3.30;;
46463;SDS011;32161;48.148;-1.554;2023-11-19T03:54:47;31.35;;;4.60;;
46463;SDS011;32161;48.148;-1.554;2023-11-19T03:57:15;31.80;;;5.28;;
46463;SDS011;32161;48.148;-1.554;2023-11-19T03:59:42;24.90;;;3.95;;
46463;SDS011;32161;48.148;-1.554;2023-11-19T04:02:10;26.33;;;3.95;;
46463;SDS011;32161;48.148;-1.554;2023-11-19T04:04:38;30.95;;;4.18;;
46463;SDS011;32161;48.148;-1.554;2023-11-19T04:07:07;28.45;;;3.92;;
46463;SDS011;32161;48.148;-1.554;2023-11-19T04:09:34;27.70;;;3.65;;
46463;SDS011;32161;48.148;-1.554;2023-11-19T04:12:03;26.85;;;5.32;;
46463;SDS011;32161;48.148;-1.554;2023-11-19T04:14:32;25.58;;;4.10;;
46463;SDS011;32161;48.148;-1.554;2023-11-19T04:16:59;28.05;;;3.30;;
46463;SDS011;32161;48.148;-1.554;2023-11-19T04:19:27;32.80;;;4.85;;
46463;SDS011;32161;48.148;-1.554;2023-11-19T04:21:55;26.38;;;5.22;;
46463;SDS011;32161;48.148;-1.554;2023-11-19T04:24:24;22.52;;;4.45;;
46463;SDS011;32161;48.148;-1.554;2023-11-19T04:26:51;34.63;;;4.95;;
46463;SDS011;32161;48.148;-1.554;2023-11-19T04:29:19;30.33;;;3.90;;
46463;SDS011;32161;48.148;-1.554;2023-11-19T04:31:47;25.02;;;4.53;;
46463;SDS011;32161;48.148;-1.554;2023-11-19T04:34:14;34.70;;;4.55;;
46463;SDS011;32161;48.148;-1.554;2023-11-19T04:36:42;31.15;;;6.35;;
46463;SDS011;32161;48.148;-1.554;2023-11-19T04:39:09;30.05;;;5.65;;
46463;SDS011;32161;48.148;-1.554;2023-11-19T04:41:46;37.90;;;6.15;;
46463;SDS011;32161;48.148;-1.554;2023-11-19T04:44:14;30.98;;;5.55;;
46463;SDS011;32161;48.148;-1.554;2023-11-19T04:46:42;25.88;;;4.40;;
46463;SDS011;32161;48.148;-1.554;2023-11-19T04:49:10;29.63;;;5.35;;
46463;SDS011;32161;48.148;-1.554;2023-11-19T04:51:39;27.13;;;4.88;;
46463;SDS011;32161;48.148;-1.554;2023-11-19T04:54:07;33.05;;;5.57;;
46463;SDS011;32161;48.148;-1.554;2023-11-19T04:56:35;37.88;;;6.57;;
46463;SDS011;32161;48.148;-1.554;2023-11-19T04:59:05;37.08;;;6.22;;
46463;SDS011;32161;48.148;-1.554;2023-11-19T05:01:34;38.53;;;6.05;;
46463;SDS011;32161;48.148;-1.554;2023-11-19T05:04:02;28.25;;;4.22;;
46463;SDS011;32161;48.148;-1.554;2023-11-19T05:06:29;17.85;;;3.75;;
46463;SDS011;32161;48.148;-1.554;2023-11-19T05:08:58;28.77;;;4.25;;
46463;SDS011;32161;48.148;-1.554;2023-11-19T05:11:28;20.55;;;4.78;;
46463;SDS011;32161;48.148;-1.554;2023-11-19T05:13:56;27.80;;;4.90;;
46463;SDS011;32161;48.148;-1.554;2023-11-19T05:16:26;29.08;;;6.88;;
46463;SDS011;32161;48.148;-1.554;2023-11-19T05:18:54;25.55;;;4.78;;
46463;SDS011;32161;48.148;-1.554;2023-11-19T05:21:21;20.48;;;4.70;;
46463;SDS011;32161;48.148;-1.554;2023-11-19T05:23:49;32.22;;;7.32;;
46463;SDS011;32161;48.148;-1.554;2023-11-19T05:26:17;36.90;;;7.07;;
46463;SDS011;32161;48.148;-1.554;2023-11-19T05:28:45;23.02;;;4.90;;
46463;SDS011;32161;48.148;-1.554;2023-11-19T05:31:13;27.40;;;4.28;;
46463;SDS011;32161;48.148;-1.554;2023-11-19T05:33:43;28.08;;;4.78;;
46463;SDS011;32161;48.148;-1.554;2023-11-19T05:36:11;23.50;;;3.60;;
46463;SDS011;32161;48.148;-1.554;2023-11-19T05:38:39;25.70;;;4.38;;
46463;SDS011;32161;48.148;-1.554;2023-11-19T05:41:06;32.15;;;4.53;;
46463;SDS011;32161;48.148;-1.554;2023-11-19T05:43:34;34.58;;;6.03;;
46463;SDS011;32161;48.148;-1.554;2023-11-19T05:46:03;39.50;;;6.88;;
46463;SDS011;32161;48.148;-1.554;2023-11-19T05:48:30;30.80;;;6.15;;
46463;SDS011;32161;48.148;-1.554;2023-11-19T05:51:00;30.05;;;4.85;;
46463;SDS011;32161;48.148;-1.554;2023-11-19T05:53:28;31.08;;;5.85;;
46463;SDS011;32161;48.148;-1.554;2023-11-19T05:55:55;32.15;;;5.05;;
46463;SDS011;32161;48.148;-1.554;2023-11-19T05:58:23;32.95;;;5.03;;
46463;SDS011;32161;48.148;-1.554;2023-11-19T06:00:53;31.70;;;5.72;;
46463;SDS011;32161;48.148;-1.554;2023-11-19T06:03:21;30.17;;;5.18;;
46463;SDS011;32161;48.148;-1.554;2023-11-19T06:05:49;27.23;;;4.18;;
46463;SDS011;32161;48.148;-1.554;2023-11-19T06:08:18;32.03;;;5.65;;
46463;SDS011;32161;48.148;-1.554;2023-11-19T06:10:46;40.30;;;4.80;;
46463;SDS011;32161;48.148;-1.554;2023-11-19T06:13:15;29.63;;;6.00;;
46463;SDS011;32161;48.148;-1.554;2023-11-19T06:15:43;32.25;;;6.47;;
46463;SDS011;32161;48.148;-1.554;2023-11-19T06:18:11;30.52;;;4.85;;
46463;SDS011;32161;48.148;-1.554;2023-11-19T06:20:40;31.30;;;6.05;;
46463;SDS011;32161;48.148;-1.554;2023-11-19T06:23:07;39.55;;;6.13;;
46463;SDS011;32161;48.148;-1.554;2023-11-19T06:25:36;37.88;;;8.60;;
46463;SDS011;32161;48.148;-1.554;2023-11-19T06:28:04;38.05;;;10.82;;
46463;SDS011;32161;48.148;-1.554;2023-11-19T06:30:31;34.85;;;10.10;;
46463;SDS011;32161;48.148;-1.554;2023-11-19T06:32:59;40.05;;;8.98;;
46463;SDS011;32161;48.148;-1.554;2023-11-19T06:35:26;35.00;;;6.18;;
46463;SDS011;32161;48.148;-1.554;2023-11-19T06:38:01;37.65;;;6.40;;
46463;SDS011;32161;48.148;-1.554;2023-11-19T06:40:29;45.15;;;7.72;;
46463;SDS011;32161;48.148;-1.554;2023-11-19T06:42:58;31.30;;;7.03;;
46463;SDS011;32161;48.148;-1.554;2023-11-19T06:45:28;31.23;;;5.80;;
46463;SDS011;32161;48.148;-1.554;2023-11-19T06:47:55;33.58;;;5.20;;
46463;SDS011;32161;48.148;-1.554;2023-11-19T06:50:23;26.90;;;4.88;;
46463;SDS011;32161;48.148;-1.554;2023-11-19T06:52:51;36.03;;;6.38;;
46463;SDS011;32161;48.148;-1.554;2023-11-19T06:55:19;43.05;;;6.00;;
46463;SDS011;32161;48.148;-1.554;2023-11-19T06:57:46;28.33;;;5.15;;
46463;SDS011;32161;48.148;-1.554;2023-11-19T07:00:15;26.23;;;5.63;;
46463;SDS011;32161;48.148;-1.554;2023-11-19T07:02:44;28.40;;;5.78;;
46463;SDS011;32161;48.148;-1.554;2023-11-19T07:05:11;27.17;;;7.00;;
46463;SDS011;32161;48.148;-1.554;2023-11-19T07:07:39;34.13;;;7.15;;
46463;SDS011;32161;48.148;-1.554;2023-11-19T07:10:06;31.52;;;9.18;;
46463;SDS011;32161;48.148;-1.554;2023-11-19T07:12:35;32.20;;;10.55;;
46463;SDS011;32161;48.148;-1.554;2023-11-19T07:15:02;27.88;;;6.80;;
46463;SDS011;32161;48.148;-1.554;2023-11-19T07:17:33;35.63;;;5.50;;
46463;SDS011;32161;48.148;-1.554;2023-11-19T07:20:01;40.20;;;6.57;;
46463;SDS011;32161;48.148;-1.554;2023-11-19T07:22:29;36.45;;;7.03;;
46463;SDS011;32161;48.148;-1.554;2023-11-19T07:24:57;32.25;;;5.85;;
46463;SDS011;32161;48.148;-1.554;2023-11-19T07:27:26;40.28;;;5.18;;
46463;SDS011;32161;48.148;-1.554;2023-11-19T07:29:54;35.50;;;5.88;;
46463;SDS011;32161;48.148;-1.554;2023-11-19T07:32:22;34.17;;;6.78;;
46463;SDS011;32161;48.148;-1.554;2023-11-19T07:34:52;41.63;;;5.82;;
46463;SDS011;32161;48.148;-1.554;2023-11-19T07:37:21;39.40;;;6.47;;
46463;SDS011;32161;48.148;-1.554;2023-11-19T07:39:49;39.70;;;9.43;;
46463;SDS011;32161;48.148;-1.554;2023-11-19T07:42:16;34.17;;;7.38;;
46463;SDS011;32161;48.148;-1.554;2023-11-19T07:44:44;41.28;;;6.28;;
46463;SDS011;32161;48.148;-1.554;2023-11-19T07:47:11;31.15;;;5.78;;
46463;SDS011;32161;48.148;-1.554;2023-11-19T07:49:39;43.60;;;6.95;;
46463;SDS011;32161;48.148;-1.554;2023-11-19T07:52:10;38.00;;;5.28;;
46463;SDS011;32161;48.148;-1.554;2023-11-19T07:54:37;35.55;;;5.53;;
46463;SDS011;32161;48.148;-1.554;2023-11-19T07:57:05;34.10;;;5.78;;
46463;SDS011;32161;48.148;-1.554;2023-11-19T07:59:32;32.40;;;4.65;;
46463;SDS011;32161;48.148;-1.554;2023-11-19T08:02:00;35.05;;;5.72;;
46463;SDS011;32161;48.148;-1.554;2023-11-19T08:04:28;23.92;;;4.13;;
46463;SDS011;32161;48.148;-1.554;2023-11-19T08:06:56;28.15;;;5.05;;
46463;SDS011;32161;48.148;-1.554;2023-11-19T08:09:25;42.67;;;6.70;;
46463;SDS011;32161;48.148;-1.554;2023-11-19T08:11:53;36.90;;;4.60;;
46463;SDS011;32161;48.148;-1.554;2023-11-19T08:14:21;27.83;;;5.70;;
46463;SDS011;32161;48.148;-1.554;2023-11-19T08:16:49;41.05;;;5.43;;
46463;SDS011;32161;48.148;-1.554;2023-11-19T08:19:17;47.10;;;7.45;;
46463;SDS011;32161;48.148;-1.554;2023-11-19T08:21:44;47.63;;;8.25;;
46463;SDS011;32161;48.148;-1.554;2023-11-19T08:24:12;40.45;;;5.78;;
46463;SDS011;32161;48.148;-1.554;2023-11-19T08:26:41;40.00;;;4.70;;
46463;SDS011;32161;48.148;-1.554;2023-11-19T08:29:09;34.35;;;4.93;;
46463;SDS011;32161;48.148;-1.554;2023-11-19T08:31:36;42.72;;;6.43;;
46463;SDS011;32161;48.148;-1.554;2023-11-19T08:34:04;39.78;;;5.55;;
46463;SDS011;32161;48.148;-1.554;2023-11-19T08:36:34;42.03;;;5.82;;
46463;SDS011;32161;48.148;-1.554;2023-11-19T08:39:01;44.25;;;5.15;;
46463;SDS011;32161;48.148;-1.554;2023-11-19T08:41:29;34.22;;;4.40;;
46463;SDS011;32161;48.148;-1.554;2023-11-19T08:43:58;43.63;;;5.40;;
46463;SDS011;32161;48.148;-1.554;2023-11-19T08:46:26;39.13;;;4.82;;
46463;SDS011;32161;48.148;-1.554;2023-11-19T08:48:53;44.50;;;6.70;;
46463;SDS011;32161;48.148;-1.554;2023-11-19T08:51:22;43.92;;;6.82;;
46463;SDS011;32161;48.148;-1.554;2023-11-19T08:53:51;44.15;;;5.95;;
46463;SDS011;32161;48.148;-1.554;2023-11-19T08:56:19;35.75;;;5.97;;
46463;SDS011;32161;48.148;-1.554;2023-11-19T08:58:46;36.13;;;6.55;;
46463;SDS011;32161;48.148;-1.554;2023-11-19T09:01:15;37.50;;;5.50;;
46463;SDS011;32161;48.148;-1.554;2023-11-19T09:03:42;48.95;;;7.78;;
46463;SDS011;32161;48.148;-1.554;2023-11-19T09:06:10;38.08;;;5.22;;
46463;SDS011;32161;48.148;-1.554;2023-11-19T09:08:38;41.58;;;5.78;;
46463;SDS011;32161;48.148;-1.554;2023-11-19T09:11:08;36.92;;;5.95;;
46463;SDS011;32161;48.148;-1.554;2023-11-19T09:13:37;40.13;;;6.20;;
46463;SDS011;32161;48.148;-1.554;2023-11-19T09:16:04;38.10;;;6.00;;
46463;SDS011;32161;48.148;-1.554;2023-11-19T09:18:35;40.33;;;6.80;;
46463;SDS011;32161;48.148;-1.554;2023-11-19T09:21:03;43.00;;;6.82;;
46463;SDS011;32161;48.148;-1.554;2023-11-19T09:23:31;33.38;;;4.95;;
46463;SDS011;32161;48.148;-1.554;2023-11-19T09:26:04;34.55;;;5.60;;
46463;SDS011;32161;48.148;-1.554;2023-11-19T09:28:32;50.10;;;6.40;;
46463;SDS011;32161;48.148;-1.554;2023-11-19T09:31:00;39.30;;;6.07;;
46463;SDS011;32161;48.148;-1.554;2023-11-19T09:33:29;45.53;;;5.93;;
46463;SDS011;32161;48.148;-1.554;2023-11-19T09:35:58;37.20;;;6.53;;
46463;SDS011;32161;48.148;-1.554;2023-11-19T09:38:26;34.80;;;5.80;;
46463;SDS011;32161;48.148;-1.554;2023-11-19T09:40:53;43.95;;;6.00;;
46463;SDS011;32161;48.148;-1.554;2023-11-19T09:43:22;26.58;;;5.43;;
46463;SDS011;32161;48.148;-1.554;2023-11-19T09:45:50;40.75;;;7.65;;
46463;SDS011;32161;48.148;-1.554;2023-11-19T09:48:19;35.17;;;5.35;;
46463;SDS011;32161;48.148;-1.554;2023-11-19T09:50:47;34.78;;;5.88;;
46463;SDS011;32161;48.148;-1.554;2023-11-19T09:53:16;30.50;;;5.43;;
46463;SDS011;32161;48.148;-1.554;2023-11-19T09:55:45;44.53;;;6.22;;
46463;SDS011;32161;48.148;-1.554;2023-11-19T09:58:13;47.03;;;5.88;;
46463;SDS011;32161;48.148;-1.554;2023-11-19T10:00:41;38.47;;;5.97;;
46463;SDS011;32161;48.148;-1.554;2023-11-19T10:03:10;43.90;;;5.78;;
46463;SDS011;32161;48.148;-1.554;2023-11-19T10:05:38;36.90;;;5.45;;
46463;SDS011;32161;48.148;-1.554;2023-11-19T10:08:06;30.88;;;5.68;;
46463;SDS011;32161;48.148;-1.554;2023-11-19T10:10:37;32.30;;;6.10;;
46463;SDS011;32161;48.148;-1.554;2023-11-19T10:13:05;47.10;;;6.07;;
46463;SDS011;32161;48.148;-1.554;2023-11-19T10:15:35;32.45;;;5.45;;
46463;SDS011;32161;48.148;-1.554;2023-11-19T10:18:04;42.75;;;6.20;;
46463;SDS011;32161;48.148;-1.554;2023-11-19T10:20:34;32.95;;;5.10;;
46463;SDS011;32161;48.148;-1.554;2023-11-19T10:23:03;32.08;;;5.57;;
46463;SDS011;32161;48.148;-1.554;2023-11-19T10:25:30;41.58;;;7.65;;
46463;SDS011;32161;48.148;-1.554;2023-11-19T10:28:01;32.70;;;4.32;;
46463;SDS011;32161;48.148;-1.554;2023-11-19T10:30:29;34.75;;;5.70;;
46463;SDS011;32161;48.148;-1.554;2023-11-19T10:33:02;42.40;;;6.60;;
46463;SDS011;32161;48.148;-1.554;2023-11-19T10:35:32;33.92;;;5.15;;
46463;SDS011;32161;48.148;-1.554;2023-11-19T10:38:01;34.30;;;5.78;;
46463;SDS011;32161;48.148;-1.554;2023-11-19T10:40:39;30.67;;;5.63;;
46463;SDS011;32161;48.148;-1.554;2023-11-19T10:43:09;45.55;;;6.85;;
46463;SDS011;32161;48.148;-1.554;2023-11-19T10:45:37;37.42;;;6.95;;
46463;SDS011;32161;48.148;-1.554;2023-11-19T10:48:06;39.83;;;6.63;;
46463;SDS011;32161;48.148;-1.554;2023-11-19T10:50:34;35.30;;;5.80;;
46463;SDS011;32161;48.148;-1.554;2023-11-19T10:53:02;38.03;;;6.57;;
46463;SDS011;32161;48.148;-1.554;2023-11-19T10:55:32;42.17;;;6.50;;
46463;SDS011;32161;48.148;-1.554;2023-11-19T10:58:01;31.77;;;5.15;;
46463;SDS011;32161;48.148;-1.554;2023-11-19T11:00:34;36.05;;;4.68;;
46463;SDS011;32161;48.148;-1.554;2023-11-19T11:03:09;30.75;;;5.15;;
46463;SDS011;32161;48.148;-1.554;2023-11-19T11:05:43;28.10;;;5.28;;
46463;SDS011;32161;48.148;-1.554;2023-11-19T11:08:13;27.60;;;5.15;;
46463;SDS011;32161;48.148;-1.554;2023-11-19T11:10:43;32.97;;;5.13;;
46463;SDS011;32161;48.148;-1.554;2023-11-19T11:13:13;29.02;;;5.70;;
46463;SDS011;32161;48.148;-1.554;2023-11-19T11:15:42;27.15;;;5.03;;
46463;SDS011;32161;48.148;-1.554;2023-11-19T11:18:12;27.77;;;6.13;;
46463;SDS011;32161;48.148;-1.554;2023-11-19T11:20:40;30.77;;;5.63;;
46463;SDS011;32161;48.148;-1.554;2023-11-19T11:23:19;32.15;;;5.72;;
46463;SDS011;32161;48.148;-1.554;2023-11-19T11:26:19;37.50;;;6.10;;
46463;SDS011;32161;48.148;-1.554;2023-11-19T11:29:16;34.35;;;4.97;;
46463;SDS011;32161;48.148;-1.554;2023-11-19T11:31:59;27.98;;;5.90;;
46463;SDS011;32161;48.148;-1.554;2023-11-19T11:34:45;32.58;;;5.32;;
46463;SDS011;32161;48.148;-1.554;2023-11-19T11:37:37;43.90;;;9.30;;
46463;SDS011;32161;48.148;-1.554;2023-11-19T11:40:14;30.60;;;6.32;;
46463;SDS011;32161;48.148;-1.554;2023-11-19T11:42:43;36.28;;;7.82;;
46463;SDS011;32161;48.148;-1.554;2023-11-19T11:45:11;36.83;;;6.55;;
46463;SDS011;32161;48.148;-1.554;2023-11-19T11:50:49;33.10;;;6.03;;
46463;SDS011;32161;48.148;-1.554;2023-11-19T11:53:22;34.10;;;5.57;;
46463;SDS011;32161;48.148;-1.554;2023-11-19T11:55:54;31.27;;;4.90;;
46463;SDS011;32161;48.148;-1.554;2023-11-19T11:58:28;46.67;;;8.35;;
46463;SDS011;32161;48.148;-1.554;2023-11-19T12:01:03;42.47;;;7.60;;
46463;SDS011;32161;48.148;-1.554;2023-11-19T12:03:37;29.15;;;7.05;;
46463;SDS011;32161;48.148;-1.554;2023-11-19T12:06:05;47.53;;;9.90;;
46463;SDS011;32161;48.148;-1.554;2023-11-19T12:08:34;44.63;;;7.82;;
46463;SDS011;32161;48.148;-1.554;2023-11-19T12:11:02;37.13;;;6.35;;
46463;SDS011;32161;48.148;-1.554;2023-11-19T12:16:24;34.88;;;8.23;;
46463;SDS011;32161;48.148;-1.554;2023-11-19T12:18:55;31.23;;;7.47;;
46463;SDS011;32161;48.148;-1.554;2023-11-19T12:21:29;30.70;;;7.47;;
46463;SDS011;32161;48.148;-1.554;2023-11-19T12:23:58;30.38;;;6.15;;
46463;SDS011;32161;48.148;-1.554;2023-11-19T12:26:39;34.00;;;5.55;;
46463;SDS011;32161;48.148;-1.554;2023-11-19T12:29:07;28.10;;;5.53;;
46463;SDS011;32161;48.148;-1.554;2023-11-19T12:31:34;24.40;;;5.47;;
46463;SDS011;32161;48.148;-1.554;2023-11-19T12:34:07;27.73;;;5.72;;
46463;SDS011;32161;48.148;-1.554;2023-11-19T12:36:37;31.02;;;5.00;;
46463;SDS011;32161;48.148;-1.554;2023-11-19T12:39:08;24.48;;;5.10;;
46463;SDS011;32161;48.148;-1.554;2023-11-19T12:41:52;23.63;;;6.53;;
46463;SDS011;32161;48.148;-1.554;2023-11-19T12:44:19;24.58;;;4.25;;
46463;SDS011;32161;48.148;-1.554;2023-11-19T12:49:33;53.17;;;6.43;;
46463;SDS011;32161;48.148;-1.554;2023-11-19T12:52:00;25.55;;;3.95;;
46463;SDS011;32161;48.148;-1.554;2023-11-19T12:54:32;24.38;;;3.47;;
46463;SDS011;32161;48.148;-1.554;2023-11-19T12:57:01;20.88;;;3.88;;
46463;SDS011;32161;48.148;-1.554;2023-11-19T12:59:30;24.10;;;3.80;;
46463;SDS011;32161;48.148;-1.554;2023-11-19T13:01:58;28.38;;;4.15;;
46463;SDS011;32161;48.148;-1.554;2023-11-19T13:04:27;28.02;;;4.38;;
46463;SDS011;32161;48.148;-1.554;2023-11-19T13:06:58;15.88;;;3.90;;
46463;SDS011;32161;48.148;-1.554;2023-11-19T13:09:29;23.42;;;3.72;;
46463;SDS011;32161;48.148;-1.554;2023-11-19T13:11:57;21.40;;;4.00;;
46463;SDS011;32161;48.148;-1.554;2023-11-19T13:17:03;28.10;;;4.90;;
46463;SDS011;32161;48.148;-1.554;2023-11-19T13:19:32;23.73;;;4.07;;
46463;SDS011;32161;48.148;-1.554;2023-11-19T13:22:01;28.90;;;4.43;;
46463;SDS011;32161;48.148;-1.554;2023-11-19T13:24:29;27.42;;;4.68;;
46463;SDS011;32161;48.148;-1.554;2023-11-19T13:26:59;25.48;;;4.68;;
46463;SDS011;32161;48.148;-1.554;2023-11-19T13:29:27;18.20;;;3.63;;
46463;SDS011;32161;48.148;-1.554;2023-11-19T13:31:54;22.25;;;4.22;;
46463;SDS011;32161;48.148;-1.554;2023-11-19T13:34:22;24.85;;;4.20;;
46463;SDS011;32161;48.148;-1.554;2023-11-19T13:36:49;23.17;;;4.80;;
46463;SDS011;32161;48.148;-1.554;2023-11-19T13:39:18;24.05;;;4.47;;
46463;SDS011;32161;48.148;-1.554;2023-11-19T13:41:48;24.60;;;4.25;;
46463;SDS011;32161;48.148;-1.554;2023-11-19T13:44:16;23.50;;;3.53;;
46463;SDS011;32161;48.148;-1.554;2023-11-19T13:46:44;22.42;;;4.00;;
46463;SDS011;32161;48.148;-1.554;2023-11-19T13:49:12;26.42;;;4.03;;
46463;SDS011;32161;48.148;-1.554;2023-11-19T13:51:40;21.25;;;4.38;;
46463;SDS011;32161;48.148;-1.554;2023-11-19T13:54:08;21.38;;;3.53;;
46463;SDS011;32161;48.148;-1.554;2023-11-19T13:56:37;23.85;;;4.57;;
46463;SDS011;32161;48.148;-1.554;2023-11-19T13:59:04;19.02;;;2.95;;
46463;SDS011;32161;48.148;-1.554;2023-11-19T14:01:33;24.42;;;3.85;;
46463;SDS011;32161;48.148;-1.554;2023-11-19T14:04:01;24.00;;;4.20;;
46463;SDS011;32161;48.148;-1.554;2023-11-19T14:06:29;28.27;;;4.15;;
46463;SDS011;32161;48.148;-1.554;2023-11-19T14:08:56;21.83;;;4.03;;
46463;SDS011;32161;48.148;-1.554;2023-11-19T14:11:24;20.33;;;3.42;;
46463;SDS011;32161;48.148;-1.554;2023-11-19T14:13:53;24.98;;;4.07;;
46463;SDS011;32161;48.148;-1.554;2023-11-19T14:16:21;29.40;;;4.93;;
46463;SDS011;32161;48.148;-1.554;2023-11-19T14:18:48;26.10;;;5.22;;
46463;SDS011;32161;48.148;-1.554;2023-11-19T14:21:16;23.02;;;3.50;;
46463;SDS011;32161;48.148;-1.554;2023-11-19T14:23:43;29.80;;;4.57;;
46463;SDS011;32161;48.148;-1.554;2023-11-19T14:26:11;25.05;;;3.95;;
46463;SDS011;32161;48.148;-1.554;2023-11-19T14:28:38;20.45;;;5.15;;
46463;SDS011;32161;48.148;-1.554;2023-11-19T14:31:07;29.30;;;4.70;;
46463;SDS011;32161;48.148;-1.554;2023-11-19T14:33:35;25.80;;;3.78;;
46463;SDS011;32161;48.148;-1.554;2023-11-19T14:36:03;21.65;;;3.97;;
46463;SDS011;32161;48.148;-1.554;2023-11-19T14:38:32;22.05;;;3.95;;
46463;SDS011;32161;48.148;-1.554;2023-11-19T14:41:00;24.02;;;3.30;;
46463;SDS011;32161;48.148;-1.554;2023-11-19T14:43:29;30.67;;;4.55;;
46463;SDS011;32161;48.148;-1.554;2023-11-19T14:46:05;25.48;;;4.32;;